createdAt,value
2019-03-19T00:06:58.036Z,61.02
2019-03-19T00:16:58.713Z,61.47
2019-03-19T00:26:59.648Z,61.95
2019-03-19T00:37:00.528Z,60.84
2019-03-19T00:47:01.177Z,61.80
2019-03-19T00:57:01.850Z,61.40
2019-03-19T01:07:02.529Z,64.09
2019-03-19T01:17:03.392Z,62.48
2019-03-19T01:27:04.129Z,62.37
2019-03-19T01:37:05.042Z,63.17
2019-03-19T01:47:05.935Z,62.12
2019-03-19T01:57:07.214Z,64.50
2019-03-19T02:07:07.874Z,62.36
2019-03-19T02:17:08.555Z,61.22
2019-03-19T02:27:09.239Z,61.70
2019-03-19T02:37:10.256Z,62.04
2019-03-19T02:47:11.130Z,61.87
2019-03-19T02:57:11.812Z,64.88
2019-03-19T03:07:12.729Z,64.30
2019-03-19T03:17:13.715Z,63.42
2019-03-19T03:27:14.599Z,63.98
2019-03-19T03:37:15.264Z,63.90
2019-03-19T03:47:15.940Z,62.87
2019-03-19T03:57:16.642Z,61.13
2019-03-19T04:07:17.312Z,63.96
2019-03-19T04:17:19.947Z,62.34
2019-03-19T04:27:20.851Z,62.31
2019-03-19T04:37:21.510Z,61.34
2019-03-19T04:47:22.140Z,62.01
2019-03-19T04:57:27.010Z,62.12
2019-03-19T05:07:26.147Z,62.78
2019-03-19T05:17:26.768Z,62.24
2019-03-19T05:27:37.000Z,61.94
2019-03-19T05:37:30.220Z,61.50
2019-03-19T05:47:37.048Z,62.46
2019-03-19T05:57:33.882Z,62.10
2019-03-19T06:07:34.521Z,61.56
2019-03-19T06:17:35.138Z,60.22
2019-03-19T06:27:35.799Z,58.69
2019-03-19T06:37:36.492Z,56.16
2019-03-19T06:47:37.156Z,55.66
2019-03-19T06:57:39.337Z,52.56
2019-03-19T07:07:40.280Z,52.37
2019-03-19T07:17:41.200Z,51.82
2019-03-19T07:27:41.935Z,59.44
2019-03-19T07:57:55.977Z,66.14
2019-03-19T09:51:25.356Z,50.72
2019-03-19T10:01:25.955Z,49.58
2019-03-19T10:31:40.458Z,50.24
2019-03-19T10:51:48.415Z,51.10
2019-03-19T11:01:51.431Z,46.04
2019-03-19T20:19:45.085Z,56.25
2019-03-19T20:29:46.834Z,56.15
2019-03-19T20:39:48.529Z,55.55
2019-03-19T20:49:49.557Z,56.77
2019-03-19T20:59:52.286Z,59.92
2019-03-19T21:09:59.994Z,59.36
2019-03-19T21:20:00.809Z,58.60
2019-03-19T21:30:06.623Z,57.69
2019-03-19T21:40:10.962Z,59.56
2019-03-19T21:50:14.312Z,58.88
2019-03-19T22:00:18.588Z,58.77
2019-03-19T22:10:20.110Z,59.20
2019-03-19T22:20:22.760Z,58.91
2019-03-19T22:30:24.682Z,57.55
2019-03-19T22:40:25.570Z,57.82
2019-03-19T22:50:30.362Z,58.55
2019-03-19T23:00:35.367Z,59.74
2019-03-19T23:10:37.391Z,59.75
2019-03-19T23:20:38.283Z,60.24
2019-03-19T23:30:39.101Z,62.09
2019-03-19T23:40:40.054Z,61.69
2019-03-19T23:50:40.782Z,61.21
